Tuesday, June 19, 2018, 1:00 AM EDT
Back to Local

KBWI, Baltimore-washington International

Location: Glen Burnie, MD, United States Lat: 39.167
Local Time: 1:00 AM EDT ( 5:00 GMT) Lon: -76.683
Time Zone: US/Eastern Elev: 147 ft

Show me the last for .
Show Coded

Time T Td Feel RH Dir Speed Gust Alt SLP Vis Weather Sky Remarks
2018-06-18 23:54 82 74 89 76 230° 7 - 29.86 29.86 10 BKN250 None
2018-06-18 22:54 83 74 90 74 220° 7 - 29.88 29.88 10 FEW070 BKN250 None
2018-06-18 21:54 85 74 93 69 220° 6 - 29.87 29.87 10 FEW070 SCT250 None
2018-06-18 20:54 86 75 95 69 210° 6 - 29.87 29.86 10 FEW060 BKN250 None
2018-06-18 19:54 87 74 96 65 200° 5 - 29.86 29.85 10 FEW130 BKN250 6-hr Precip Total (8pm): 0.00"
6-hr Min Temp (8pm): 84.0°F
6-hr Max Temp (8pm): 93.9°F
2018-06-18 18:54 87 71 93 59 160° 3 - 29.87 29.87 10 FEW130 SCT250 None
2018-06-18 18:11 87 70 93 57 190° 6 - 29.90 - 10 FEW050 SCT130 SCT250 None
2018-06-18 17:54 86 70 91 59 Variable 5 - 29.90 29.89 10 TS SCT050CB BKN130 BKN250 Wind Shift: 57 min
Lighting in the vicinity
Virga in the vinicity
1-hr Precip Total: Trace
2018-06-18 17:15 85 68 89 57 320° 12 - 29.91 - 10 -TSRA SCT050CB BKN130 BKN250 Wind Shift: 57 min
Lighting in the vicinity
1-hr Precip Total: Trace
2018-06-18 16:54 91 73 100 55 220° 6 - 29.92 29.92 10 SCT050CB BKN130 BKN250 Virga in the vinicity
2018-06-18 15:54 93 73 103 52 220° 8 - 29.93 29.93 10 SCT050 BKN250 None
2018-06-18 14:54 93 72 102 50 200° 8 - 29.96 29.95 10 SCT050 BKN250 None
2018-06-18 13:54 90 72 98 55 290° 6 - 29.98 29.97 10 BKN055TCU BKN250 6-hr Min Temp (2pm): 77.0°F
6-hr Max Temp (2pm): 91.9°F
2018-06-18 12:54 92 72 101 52 170° 9 - 30.00 29.99 10 FEW045 BKN250 None
2018-06-18 11:54 90 71 97 54 Variable 5 - 30.02 30.02 10 FEW045 FEW080 BKN250 None
2018-06-18 10:54 88 70 94 55 200° 7 - 30.03 30.02 10 BKN250 None
2018-06-18 09:54 86 70 91 59 210° 6 - 30.03 30.03 10 BKN250 None
2018-06-18 08:54 81 71 86 71 240° 3 - 30.05 30.04 10 FEW160 BKN250 None
2018-06-18 07:54 77 71 81 81 - Calm - 30.05 30.04 10 SCT160 BKN250 6-hr Min Temp (8am): 69.1°F
6-hr Max Temp (8am): 77.0°F
2018-06-18 06:54 73 69 77 87 - Calm - 30.06 30.05 10 FEW080 FEW160 BKN250 None
2018-06-18 05:54 70 68 - 93 - Calm - 30.06 30.06 10 FEW080 BKN250 None
2018-06-18 04:54 71 68 76 90 - Calm - 30.06 30.05 10 FEW080 BKN250 None
2018-06-18 03:54 73 68 77 84 - Calm - 30.06 30.06 10 SCT049 BKN080 BKN250 None
2018-06-18 02:54 72 68 76 87 - Calm - 30.06 30.06 10 SCT049 BKN250 None
2018-06-18 01:54 72 68 76 87 - Calm - 30.07 30.06 10 SCT250 6-hr Min Temp (2am): 72.0°F
6-hr Max Temp (2am): 84.0°F

Support USWX by starting your Amazon purchase here.